createdAt,value
2022-08-12T00:04:09.604Z,69.15
2022-08-12T00:09:32.445Z,68.56
2022-08-12T00:14:54.288Z,68.20
2022-08-12T00:20:16.297Z,67.52
2022-08-12T00:26:00.477Z,67.22
2022-08-12T00:31:26.320Z,67.67
2022-08-12T00:36:59.536Z,67.78
2022-08-12T00:42:25.920Z,67.52
2022-08-12T00:47:49.244Z,67.79
2022-08-12T00:53:12.571Z,68.38
2022-08-12T00:58:34.637Z,68.67
2022-08-12T01:03:59.482Z,68.46
2022-08-12T01:09:22.688Z,69.72
2022-08-12T01:14:45.406Z,69.36
2022-08-12T01:20:09.687Z,69.71
2022-08-12T01:25:41.396Z,69.92
2022-08-12T01:31:19.677Z,70.55
2022-08-12T01:36:50.297Z,70.53
2022-08-12T01:42:18.067Z,70.52
2022-08-12T01:47:56.489Z,70.92
2022-08-12T01:53:23.718Z,71.17
2022-08-12T01:58:46.783Z,71.45
2022-08-12T02:04:14.583Z,71.66
2022-08-12T02:09:55.279Z,72.37
2022-08-12T02:15:56.858Z,72.83
2022-08-12T02:21:24.442Z,72.71
2022-08-12T02:26:50.641Z,72.98
2022-08-12T02:32:14.470Z,72.29
2022-08-12T02:37:42.363Z,72.63
2022-08-12T02:43:22.207Z,73.45
2022-08-12T02:48:50.608Z,73.00
2022-08-12T02:54:12.704Z,72.35
2022-08-12T02:59:35.049Z,73.31
2022-08-12T03:04:58.493Z,73.57
2022-08-12T03:10:37.326Z,74.29
2022-08-12T03:15:59.825Z,74.01
2022-08-12T03:21:56.495Z,74.00
2022-08-12T03:27:06.082Z,74.93
2022-08-12T03:32:35.839Z,74.67
2022-08-12T03:38:00.915Z,74.62
2022-08-12T03:43:28.842Z,75.65
2022-08-12T03:48:51.594Z,77.25
2022-08-12T03:54:13.466Z,77.69
2022-08-12T03:59:35.271Z,78.22
2022-08-12T04:04:57.623Z,78.56
2022-08-12T04:10:20.623Z,79.10
2022-08-12T04:15:44.753Z,79.50
2022-08-12T04:21:07.265Z,79.32
2022-08-12T04:26:29.527Z,78.32
2022-08-12T04:31:51.384Z,77.74
2022-08-12T04:37:13.361Z,76.69
2022-08-12T04:42:35.238Z,77.44
2022-08-12T04:47:57.189Z,77.13
2022-08-12T04:53:19.360Z,76.14
2022-08-12T04:58:41.707Z,73.36
2022-08-12T05:04:05.594Z,71.81
2022-08-12T05:09:27.450Z,71.59
2022-08-12T05:15:11.379Z,70.87
2022-08-12T05:20:42.115Z,71.97
2022-08-12T05:26:04.233Z,52.87
2022-08-12T05:31:47.310Z,53.90
2022-08-12T05:37:08.984Z,50.13
2022-08-12T05:42:34.391Z,50.50
2022-08-12T05:47:56.556Z,59.43
2022-08-12T05:53:18.591Z,54.33
2022-08-12T05:58:40.393Z,51.48
2022-08-12T06:04:02.228Z,44.82
2022-08-12T06:09:24.129Z,35.65
2022-08-12T06:14:45.945Z,31.83
2022-08-12T06:20:27.170Z,39.21
2022-08-12T06:25:49.909Z,44.33
2022-08-12T06:31:25.728Z,32.76
2022-08-12T06:36:48.591Z,30.82
2022-08-12T06:42:31.873Z,29.66
2022-08-12T06:47:53.035Z,29.77
2022-08-12T06:53:14.852Z,31.84
2022-08-12T06:58:36.664Z,30.61
2022-08-12T07:04:14.242Z,32.12
2022-08-12T07:10:06.907Z,28.55
2022-08-12T07:15:24.968Z,28.90
2022-08-12T07:20:52.754Z,30.08
2022-08-12T07:26:15.094Z,27.78
2022-08-12T07:31:39.753Z,29.25
2022-08-12T07:37:01.598Z,27.98
2022-08-12T07:42:26.467Z,28.36
2022-08-12T07:47:49.037Z,30.01
2022-08-12T07:53:10.898Z,37.72
2022-08-12T07:58:33.378Z,40.05
2022-08-12T08:03:58.873Z,40.42
2022-08-12T08:09:23.325Z,34.48
2022-08-12T08:14:45.139Z,32.54
2022-08-12T08:20:09.096Z,36.46
2022-08-12T08:25:35.829Z,37.63
2022-08-12T08:30:59.369Z,41.54
2022-08-12T08:36:24.229Z,41.99
2022-08-12T08:42:15.404Z,46.18
2022-08-12T08:47:27.993Z,46.00
2022-08-12T08:52:49.871Z,47.40
2022-08-12T08:58:12.102Z,45.43
2022-08-12T09:05:07.391Z,38.62
2022-08-12T09:09:15.797Z,37.17
2022-08-12T09:14:37.648Z,35.50
2022-08-12T09:20:00.887Z,38.29
2022-08-12T09:32:04.270Z,49.12
2022-08-12T09:37:00.235Z,48.69
2022-08-12T09:42:38.983Z,52.39
2022-08-12T09:48:05.790Z,54.22
2022-08-12T09:53:36.599Z,56.49
2022-08-12T09:59:02.094Z,57.45
2022-08-12T10:04:24.773Z,57.87
2022-08-12T10:09:57.158Z,58.86
2022-08-12T10:16:01.764Z,57.40
2022-08-12T10:21:07.552Z,58.34
2022-08-12T10:26:37.278Z,58.37
2022-08-12T10:32:21.050Z,55.72
2022-08-12T10:38:34.770Z,57.03
2022-08-12T10:43:24.154Z,56.55
2022-08-12T10:48:47.179Z,56.08
2022-08-12T10:54:21.569Z,55.28
2022-08-12T11:00:34.662Z,55.79
2022-08-12T11:07:05.358Z,56.84
2022-08-12T11:11:16.686Z,58.91
2022-08-12T11:16:38.907Z,59.83
2022-08-12T11:22:01.267Z,58.85
2022-08-12T11:27:24.984Z,60.56
2022-08-12T11:32:51.399Z,60.00
2022-08-12T11:38:13.230Z,60.40
2022-08-12T11:43:50.558Z,59.09
2022-08-12T11:49:30.695Z,57.14
2022-08-12T11:54:54.328Z,56.02
2022-08-12T12:02:01.649Z,56.84
2022-08-12T12:06:00.603Z,57.94
2022-08-12T12:11:22.869Z,57.29
2022-08-12T12:16:50.185Z,57.48
2022-08-12T12:22:15.688Z,57.31
2022-08-12T12:28:04.408Z,57.31
2022-08-12T12:33:56.750Z,55.28
2022-08-12T12:39:09.722Z,55.83
2022-08-12T12:44:41.931Z,58.01
2022-08-12T12:50:12.685Z,56.14
2022-08-12T12:55:54.353Z,57.93
2022-08-12T13:01:26.591Z,59.96
2022-08-12T13:06:51.677Z,61.69
2022-08-12T13:12:13.473Z,58.13
2022-08-12T13:18:00.750Z,57.94
2022-08-12T13:23:36.967Z,57.76
2022-08-12T13:28:59.439Z,56.10
2022-08-12T13:34:33.621Z,55.42
2022-08-12T13:39:56.907Z,55.62
2022-08-12T13:45:18.961Z,54.95
2022-08-12T13:50:41.803Z,55.86
2022-08-12T13:56:04.266Z,57.00
2022-08-12T14:01:26.099Z,58.81
2022-08-12T14:06:48.795Z,57.41
2022-08-12T14:12:16.222Z,58.12
2022-08-12T14:17:38.304Z,57.28
2022-08-12T14:23:00.164Z,56.66
2022-08-12T14:28:45.472Z,55.58
2022-08-12T14:34:19.726Z,55.67
2022-08-12T14:39:50.717Z,55.68
2022-08-12T14:45:12.708Z,55.95
2022-08-12T14:52:07.904Z,56.73
2022-08-12T15:02:00.288Z,56.69
2022-08-12T15:07:34.273Z,56.97
2022-08-12T15:13:04.576Z,55.06
2022-08-12T15:18:31.746Z,56.37
2022-08-12T15:23:55.635Z,57.88
2022-08-12T15:29:19.044Z,58.19
2022-08-12T15:34:41.978Z,58.92
2022-08-12T15:40:05.303Z,59.37
2022-08-12T15:45:32.086Z,60.47
2022-08-12T15:50:55.359Z,61.85
2022-08-12T15:56:17.203Z,63.75
2022-08-12T16:01:40.215Z,69.36
2022-08-12T16:07:09.039Z,80.43
2022-08-12T16:12:31.281Z,91.30
2022-08-12T16:18:19.875Z,100.00
2022-08-12T16:23:55.233Z,100.00
2022-08-12T16:29:17.618Z,100.00
2022-08-12T16:34:42.351Z,100.00
2022-08-12T16:40:18.674Z,100.00
2022-08-12T16:46:05.001Z,100.00
2022-08-12T16:51:29.063Z,100.00
2022-08-12T16:56:59.319Z,100.00
2022-08-12T17:02:31.447Z,100.00
2022-08-12T17:07:56.286Z,100.00
2022-08-12T17:13:20.023Z,100.00
2022-08-12T17:18:42.876Z,100.00
2022-08-12T17:24:08.100Z,100.00
2022-08-12T17:30:00.650Z,100.00
2022-08-12T17:35:16.184Z,100.00
2022-08-12T17:40:40.887Z,100.00
2022-08-12T17:46:03.335Z,100.00
2022-08-12T17:51:26.313Z,100.00
2022-08-12T17:56:54.620Z,100.00
2022-08-12T18:02:29.949Z,100.00
2022-08-12T18:07:53.364Z,100.00
2022-08-12T18:13:40.925Z,100.00
2022-08-12T18:18:59.528Z,100.00
2022-08-12T18:24:25.085Z,100.00
2022-08-12T18:29:51.917Z,100.00
2022-08-12T18:35:17.340Z,100.00
2022-08-12T18:40:46.554Z,100.00
2022-08-12T18:46:12.565Z,100.00
2022-08-12T18:51:45.923Z,100.00
2022-08-12T18:57:16.267Z,100.00
2022-08-12T19:02:40.601Z,100.00
2022-08-12T19:08:03.233Z,100.00
2022-08-12T19:13:25.314Z,100.00
2022-08-12T19:18:55.264Z,100.00
2022-08-12T19:24:17.160Z,100.00
2022-08-12T19:29:44.166Z,100.00
2022-08-12T19:36:08.120Z,100.00
2022-08-12T19:40:48.945Z,100.00
2022-08-12T19:46:11.083Z,100.00
2022-08-12T19:51:35.851Z,100.00
2022-08-12T19:56:58.153Z,100.00
2022-08-12T20:02:21.184Z,100.00
2022-08-12T20:07:58.958Z,100.00
2022-08-12T20:13:26.675Z,100.00
2022-08-12T20:18:57.232Z,100.00
2022-08-12T20:24:20.025Z,100.00
2022-08-12T20:29:45.555Z,100.00
2022-08-12T20:35:10.245Z,100.00
2022-08-12T20:40:32.358Z,100.00
2022-08-12T20:45:57.538Z,100.00
2022-08-12T20:51:20.017Z,100.00
2022-08-12T20:56:41.934Z,100.00
2022-08-12T21:02:07.862Z,100.00
2022-08-12T21:07:34.174Z,100.00
2022-08-12T21:12:56.190Z,100.00
2022-08-12T21:18:28.641Z,100.00
2022-08-12T21:23:52.298Z,100.00
2022-08-12T21:29:19.217Z,100.00
2022-08-12T21:34:41.068Z,100.00
2022-08-12T21:40:13.115Z,100.00
2022-08-12T21:45:47.525Z,100.00
2022-08-12T21:51:22.665Z,100.00
2022-08-12T21:56:45.562Z,100.00
2022-08-12T22:02:09.965Z,100.00
2022-08-12T22:07:46.105Z,100.00
2022-08-12T22:14:02.253Z,100.00
2022-08-12T22:18:56.659Z,100.00
2022-08-12T22:24:26.717Z,100.00
2022-08-12T22:29:53.139Z,100.00
2022-08-12T22:35:21.966Z,100.00
2022-08-12T22:40:47.657Z,100.00
2022-08-12T22:46:11.230Z,100.00
2022-08-12T22:51:59.891Z,100.00
2022-08-12T22:57:15.771Z,100.00
2022-08-12T23:02:38.053Z,100.00
2022-08-12T23:08:01.127Z,100.00
2022-08-12T23:13:23.035Z,100.00
2022-08-12T23:18:48.238Z,100.00
2022-08-12T23:24:11.220Z,100.00
2022-08-12T23:29:43.076Z,100.00
2022-08-12T23:35:07.028Z,100.00
2022-08-12T23:40:29.012Z,100.00
2022-08-12T23:46:00.965Z,100.00
2022-08-12T23:51:24.361Z,100.00
2022-08-12T23:56:46.519Z,100.00
